createdAt,value
2017-03-27T00:00:02.343Z,2.71
2017-03-27T00:00:06.770Z,2.71
2017-03-27T00:00:10.991Z,2.71
2017-03-27T00:00:15.417Z,2.71
2017-03-27T00:00:19.729Z,2.72
2017-03-27T00:00:23.917Z,2.71
2017-03-27T00:00:28.267Z,2.71
2017-03-27T00:00:32.695Z,2.7
2017-03-27T00:00:37.006Z,2.71
2017-03-27T00:00:41.327Z,2.7
2017-03-27T00:00:45.640Z,2.71
2017-03-27T00:00:50.076Z,2.7
2017-03-27T00:00:54.543Z,2.69
2017-03-27T00:00:58.854Z,2.69
2017-03-27T00:01:03.158Z,2.7
2017-03-27T00:01:07.479Z,2.69
2017-03-27T00:01:11.903Z,2.7
2017-03-27T00:01:16.332Z,2.7
2017-03-27T00:01:20.821Z,2.7
2017-03-27T00:01:25.142Z,2.7
2017-03-27T00:01:29.611Z,2.7
2017-03-27T00:01:33.809Z,2.7
2017-03-27T00:01:37.890Z,2.69
2017-03-27T00:01:42.209Z,2.7
2017-03-27T00:01:46.651Z,2.7
2017-03-27T00:01:50.970Z,2.69
2017-03-27T00:01:55.402Z,2.69
2017-03-27T00:01:59.733Z,2.7
2017-03-27T00:02:04.171Z,2.7
2017-03-27T00:02:08.492Z,2.7
2017-03-27T00:02:12.922Z,2.7
2017-03-27T00:02:17.243Z,2.7
2017-03-27T00:02:21.685Z,2.69
2017-03-27T00:02:25.878Z,2.69
2017-03-27T00:02:30.314Z,2.7
2017-03-27T00:02:34.625Z,2.7
2017-03-27T00:02:38.846Z,2.7
2017-03-27T00:02:43.042Z,2.69
2017-03-27T00:02:47.359Z,2.7
2017-03-27T00:02:51.684Z,2.69
2017-03-27T00:02:56.021Z,2.69
2017-03-27T00:03:00.347Z,2.69
2017-03-27T00:03:04.787Z,2.69
2017-03-27T00:03:08.990Z,2.69
2017-03-27T00:03:13.466Z,2.69
2017-03-27T00:03:17.678Z,2.69
2017-03-27T00:03:21.895Z,2.68
2017-03-27T00:03:26.345Z,2.7
2017-03-27T00:03:30.561Z,2.69
2017-03-27T00:03:35.002Z,2.7
2017-03-27T00:03:39.214Z,2.7
2017-03-27T00:03:43.545Z,2.7
2017-03-27T00:03:47.865Z,2.7
2017-03-27T00:03:52.320Z,2.7
2017-03-27T00:03:56.666Z,2.7
2017-03-27T00:04:01.007Z,2.69
2017-03-27T00:04:05.209Z,2.7
2017-03-27T00:04:09.652Z,2.71
2017-03-27T00:04:14.086Z,2.7
2017-03-27T00:04:18.522Z,2.7
2017-03-27T00:04:22.957Z,2.7
2017-03-27T00:04:27.401Z,2.7
2017-03-27T00:04:31.863Z,2.69
2017-03-27T00:04:36.308Z,2.7
2017-03-27T00:04:40.621Z,2.71
2017-03-27T00:04:44.934Z,2.7
2017-03-27T00:04:49.363Z,2.69
2017-03-27T00:04:53.821Z,2.7
2017-03-27T00:04:58.275Z,2.71
2017-03-27T00:05:03.011Z,2.71
2017-03-27T00:05:07.444Z,2.7
2017-03-27T00:05:11.875Z,2.7
2017-03-27T00:05:16.304Z,2.71
2017-03-27T00:05:20.771Z,2.7
2017-03-27T00:05:25.206Z,2.7
2017-03-27T00:05:29.524Z,2.7
2017-03-27T00:05:33.848Z,2.7
2017-03-27T00:05:38.173Z,2.72
2017-03-27T00:05:42.616Z,2.72
2017-03-27T00:05:46.935Z,2.71
2017-03-27T00:05:51.131Z,2.71
2017-03-27T00:05:55.328Z,2.72
2017-03-27T00:05:59.648Z,2.72
2017-03-27T00:06:04.195Z,2.71
2017-03-27T00:06:08.283Z,2.73
2017-03-27T00:06:12.603Z,2.72
2017-03-27T00:06:16.815Z,2.71
2017-03-27T00:06:21.279Z,2.7
2017-03-27T00:06:25.707Z,2.72
2017-03-27T00:06:30.024Z,2.73
2017-03-27T00:06:34.338Z,2.73
2017-03-27T00:06:38.792Z,2.73
2017-03-27T00:06:43.234Z,2.72
2017-03-27T00:06:47.550Z,2.72
2017-03-27T00:06:51.749Z,2.71
2017-03-27T00:06:56.066Z,2.73
2017-03-27T00:07:00.265Z,2.72
2017-03-27T00:07:04.691Z,2.73
2017-03-27T00:07:09.131Z,2.73
2017-03-27T00:07:13.348Z,2.73
2017-03-27T00:07:17.681Z,2.73
2017-03-27T00:07:21.998Z,2.73
2017-03-27T00:07:26.202Z,2.73
2017-03-27T00:07:30.309Z,2.74
2017-03-27T00:07:34.527Z,2.74
2017-03-27T00:07:38.850Z,2.74
2017-03-27T00:07:43.073Z,2.73
2017-03-27T00:07:47.521Z,2.74
2017-03-27T00:07:51.740Z,2.75
2017-03-27T00:07:55.717Z,2.74
2017-03-27T00:08:00.153Z,2.74
2017-03-27T00:08:04.708Z,2.74
2017-03-27T00:08:09.146Z,2.74
2017-03-27T00:08:13.590Z,2.75
2017-03-27T00:08:17.922Z,2.75
2017-03-27T00:08:22.283Z,2.74
2017-03-27T00:08:26.610Z,2.75
2017-03-27T00:08:30.935Z,2.75
2017-03-27T00:08:35.258Z,2.74
2017-03-27T00:08:39.706Z,2.75
2017-03-27T00:08:44.030Z,2.75
2017-03-27T00:08:48.242Z,2.76
2017-03-27T00:08:52.577Z,2.75
2017-03-27T00:08:56.790Z,2.75
2017-03-27T00:09:01.009Z,2.76
2017-03-27T00:09:05.444Z,2.75
2017-03-27T00:09:09.890Z,2.75
2017-03-27T00:09:14.361Z,2.75
2017-03-27T00:09:18.797Z,2.75
2017-03-27T00:09:23.237Z,2.75
2017-03-27T00:09:27.599Z,2.75
2017-03-27T00:09:31.920Z,2.75
2017-03-27T00:09:36.011Z,2.74
2017-03-27T00:09:40.454Z,2.75
2017-03-27T00:09:44.785Z,2.75
2017-03-27T00:09:49.138Z,2.75
2017-03-27T00:09:53.352Z,2.75
2017-03-27T00:09:57.802Z,2.74
2017-03-27T00:10:02.251Z,2.75
2017-03-27T00:10:06.453Z,2.74
2017-03-27T00:10:10.654Z,2.74
2017-03-27T00:10:14.977Z,2.74
2017-03-27T00:10:19.302Z,2.75
2017-03-27T00:10:23.740Z,2.74
2017-03-27T00:10:28.182Z,2.74
2017-03-27T00:10:32.390Z,2.73
2017-03-27T00:10:36.584Z,2.74
2017-03-27T00:10:40.788Z,2.74
2017-03-27T00:10:45.120Z,2.74
2017-03-27T00:10:49.579Z,2.74
2017-03-27T00:10:53.795Z,2.73
2017-03-27T00:10:58.119Z,2.72
2017-03-27T00:11:02.203Z,2.72
2017-03-27T00:11:06.680Z,2.74
2017-03-27T00:11:11.022Z,2.73
2017-03-27T00:11:15.453Z,2.73
2017-03-27T00:11:19.656Z,2.73
2017-03-27T00:11:23.974Z,2.73
2017-03-27T00:11:28.395Z,2.73
2017-03-27T00:11:32.716Z,2.73
2017-03-27T00:11:37.155Z,2.71
2017-03-27T00:11:41.577Z,2.72
2017-03-27T00:11:46.011Z,2.74
2017-03-27T00:11:50.325Z,2.72
2017-03-27T00:11:54.642Z,2.71
2017-03-27T00:11:58.957Z,2.71
2017-03-27T00:12:03.269Z,2.72
2017-03-27T00:12:07.705Z,2.71
2017-03-27T00:12:11.909Z,2.71
2017-03-27T00:12:16.340Z,2.71
2017-03-27T00:12:20.664Z,2.71
2017-03-27T00:12:25.095Z,2.71
2017-03-27T00:12:29.407Z,2.71
2017-03-27T00:12:33.744Z,2.7
2017-03-27T00:12:38.180Z,2.7
2017-03-27T00:12:42.610Z,2.7
2017-03-27T00:12:47.055Z,2.7
2017-03-27T00:12:51.495Z,2.7
2017-03-27T00:12:55.709Z,2.71
2017-03-27T00:13:00.030Z,2.7
2017-03-27T00:13:04.467Z,2.69
2017-03-27T00:13:08.907Z,2.7
2017-03-27T00:13:13.226Z,2.69
2017-03-27T00:13:17.661Z,2.7
2017-03-27T00:13:22.103Z,2.69
2017-03-27T00:13:26.549Z,2.69
2017-03-27T00:13:30.985Z,2.7
2017-03-27T00:13:35.086Z,2.69
2017-03-27T00:13:39.520Z,2.7
2017-03-27T00:13:43.880Z,2.69
2017-03-27T00:13:48.318Z,2.69
2017-03-27T00:13:52.639Z,2.69
2017-03-27T00:13:57.081Z,2.69
2017-03-27T00:14:01.404Z,2.69
2017-03-27T00:14:05.717Z,2.69
2017-03-27T00:14:10.173Z,2.69
2017-03-27T00:14:14.661Z,2.68
2017-03-27T00:14:18.986Z,2.68
2017-03-27T00:14:23.363Z,2.69
2017-03-27T00:14:27.810Z,2.68
2017-03-27T00:14:32.128Z,2.68
2017-03-27T00:14:36.448Z,2.68
2017-03-27T00:14:40.883Z,2.68
2017-03-27T00:14:45.319Z,2.68
2017-03-27T00:14:49.746Z,2.68
2017-03-27T00:14:54.179Z,2.69
2017-03-27T00:14:58.531Z,2.68
2017-03-27T00:15:02.725Z,2.68
2017-03-27T00:15:07.046Z,2.68
2017-03-27T00:15:11.489Z,2.68
2017-03-27T00:15:15.945Z,2.68
2017-03-27T00:15:20.265Z,2.67
2017-03-27T00:15:24.583Z,2.68
2017-03-27T00:15:29.014Z,2.68
2017-03-27T00:15:33.334Z,2.67
2017-03-27T00:15:37.659Z,2.67
2017-03-27T00:15:42.106Z,2.67
2017-03-27T00:15:46.577Z,2.67
2017-03-27T00:15:50.893Z,2.67
2017-03-27T00:15:55.332Z,2.66
2017-03-27T00:15:59.541Z,2.67
2017-03-27T00:16:03.995Z,2.67
2017-03-27T00:16:08.315Z,2.67
2017-03-27T00:16:12.633Z,2.66
2017-03-27T00:16:17.069Z,2.66
2017-03-27T00:16:21.498Z,2.66
2017-03-27T00:16:25.824Z,2.65
2017-03-27T00:16:30.140Z,2.65
2017-03-27T00:16:34.455Z,2.65
2017-03-27T00:16:38.669Z,2.66
2017-03-27T00:16:43.138Z,2.65
2017-03-27T00:16:47.575Z,2.66
2017-03-27T00:16:52.002Z,2.66
2017-03-27T00:16:56.232Z,2.66
2017-03-27T00:17:00.186Z,2.66
2017-03-27T00:17:04.602Z,2.66
2017-03-27T00:17:09.041Z,2.66
2017-03-27T00:17:13.357Z,2.66
2017-03-27T00:17:17.800Z,2.66
2017-03-27T00:17:22.238Z,2.65
2017-03-27T00:17:26.673Z,2.65
2017-03-27T00:17:31.006Z,2.66
2017-03-27T00:17:35.453Z,2.66
2017-03-27T00:17:39.884Z,2.65
2017-03-27T00:17:44.391Z,2.65
2017-03-27T00:17:48.830Z,2.64
2017-03-27T00:17:53.285Z,2.65
2017-03-27T00:17:57.612Z,2.64
2017-03-27T00:18:02.001Z,2.64
2017-03-27T00:18:06.315Z,2.64
2017-03-27T00:18:10.749Z,2.64
2017-03-27T00:18:15.065Z,2.64
2017-03-27T00:18:19.506Z,2.63
2017-03-27T00:18:23.967Z,2.64
2017-03-27T00:18:28.405Z,2.63
2017-03-27T00:18:32.844Z,2.63
2017-03-27T00:18:37.170Z,2.63
2017-03-27T00:18:41.491Z,2.62
2017-03-27T00:18:45.927Z,2.62
2017-03-27T00:18:50.374Z,2.63
2017-03-27T00:18:54.583Z,2.63
2017-03-27T00:18:59.025Z,2.63
2017-03-27T00:19:03.495Z,2.61
2017-03-27T00:19:07.937Z,2.62
2017-03-27T00:19:12.152Z,2.62
2017-03-27T00:19:16.609Z,2.61
2017-03-27T00:19:21.081Z,2.61
2017-03-27T00:19:25.401Z,2.61
2017-03-27T00:19:29.853Z,2.61
2017-03-27T00:19:33.932Z,2.61
2017-03-27T00:19:38.365Z,2.6
2017-03-27T00:19:42.805Z,2.6
2017-03-27T00:19:47.239Z,2.61
2017-03-27T00:19:51.561Z,2.6
2017-03-27T00:19:56.006Z,2.6
2017-03-27T00:20:00.442Z,2.6
2017-03-27T00:20:04.865Z,2.59
2017-03-27T00:20:09.288Z,2.6
2017-03-27T00:20:13.603Z,2.59
2017-03-27T00:20:18.028Z,2.58
2017-03-27T00:20:22.460Z,2.58
2017-03-27T00:20:26.888Z,2.58
2017-03-27T00:20:31.320Z,2.58
2017-03-27T00:20:35.750Z,2.58
2017-03-27T00:20:40.179Z,2.58
2017-03-27T00:20:44.259Z,2.59
2017-03-27T00:20:48.591Z,2.58
2017-03-27T00:20:53.026Z,2.58
2017-03-27T00:20:57.462Z,2.58
2017-03-27T00:21:02.186Z,2.56
2017-03-27T00:21:06.504Z,2.56
2017-03-27T00:21:10.936Z,2.56
2017-03-27T00:21:15.362Z,2.56
2017-03-27T00:21:19.813Z,2.57
2017-03-27T00:21:24.267Z,2.56
2017-03-27T00:21:28.587Z,2.56
2017-03-27T00:21:33.018Z,2.55
2017-03-27T00:21:37.458Z,2.56
2017-03-27T00:21:41.772Z,2.55
2017-03-27T00:21:46.129Z,2.55
2017-03-27T00:21:50.443Z,2.55
2017-03-27T00:21:54.873Z,2.55
2017-03-27T00:21:59.191Z,2.54
2017-03-27T00:22:03.509Z,2.54
2017-03-27T00:22:07.822Z,2.54
2017-03-27T00:22:12.250Z,2.54
2017-03-27T00:22:16.570Z,2.55
2017-03-27T00:22:21.007Z,2.55
2017-03-27T00:22:25.444Z,2.54
2017-03-27T00:22:29.923Z,2.54
2017-03-27T00:22:34.380Z,2.54
2017-03-27T00:22:38.789Z,2.54
2017-03-27T00:22:43.017Z,2.54
2017-03-27T00:22:47.339Z,2.53
2017-03-27T00:22:51.778Z,2.53
2017-03-27T00:22:56.095Z,2.53
2017-03-27T00:23:00.414Z,2.53
2017-03-27T00:23:04.853Z,2.54
2017-03-27T00:23:09.300Z,2.53
2017-03-27T00:23:13.751Z,2.53
2017-03-27T00:23:18.185Z,2.54
2017-03-27T00:23:22.641Z,2.53
2017-03-27T00:23:27.116Z,2.52
2017-03-27T00:23:31.442Z,2.52
2017-03-27T00:23:35.686Z,2.53
2017-03-27T00:23:40.136Z,2.53
2017-03-27T00:23:44.343Z,2.52
2017-03-27T00:23:48.779Z,2.53
2017-03-27T00:23:53.222Z,2.52
2017-03-27T00:23:57.680Z,2.51
2017-03-27T00:24:02.170Z,2.52
2017-03-27T00:24:06.622Z,2.51
2017-03-27T00:24:10.839Z,2.52
2017-03-27T00:24:15.181Z,2.52
2017-03-27T00:24:19.515Z,2.52
2017-03-27T00:24:23.962Z,2.51
2017-03-27T00:24:28.312Z,2.52
2017-03-27T00:24:32.510Z,2.51
2017-03-27T00:24:36.830Z,2.52
2017-03-27T00:24:41.261Z,2.5
2017-03-27T00:24:45.701Z,2.51
2017-03-27T00:24:50.131Z,2.51
2017-03-27T00:24:54.444Z,2.51
2017-03-27T00:24:58.884Z,2.5
2017-03-27T00:25:03.201Z,2.51
2017-03-27T00:25:07.644Z,2.51
2017-03-27T00:25:12.079Z,2.51
2017-03-27T00:25:16.513Z,2.5
2017-03-27T00:25:20.624Z,2.5
2017-03-27T00:25:24.962Z,2.5
2017-03-27T00:25:29.387Z,2.5
2017-03-27T00:25:33.700Z,2.5
2017-03-27T00:25:38.129Z,2.51
2017-03-27T00:25:42.567Z,2.51
2017-03-27T00:25:46.999Z,2.5
2017-03-27T00:25:51.422Z,2.51
2017-03-27T00:25:55.860Z,2.5
2017-03-27T00:26:00.322Z,2.51
2017-03-27T00:26:04.628Z,2.5
2017-03-27T00:26:08.833Z,2.5
2017-03-27T00:26:13.150Z,2.5
2017-03-27T00:26:17.477Z,2.5
2017-03-27T00:26:21.906Z,2.5
2017-03-27T00:26:26.329Z,2.5
2017-03-27T00:26:30.635Z,2.51
2017-03-27T00:26:34.844Z,2.5
2017-03-27T00:26:39.293Z,2.5
2017-03-27T00:26:43.613Z,2.5
2017-03-27T00:26:47.925Z,2.5
2017-03-27T00:26:52.361Z,2.5
2017-03-27T00:26:56.797Z,2.5
2017-03-27T00:27:01.117Z,2.5
2017-03-27T00:27:05.668Z,2.5
2017-03-27T00:27:10.097Z,2.5
2017-03-27T00:27:14.531Z,2.5
2017-03-27T00:27:18.967Z,2.5
2017-03-27T00:27:23.289Z,2.49
2017-03-27T00:27:27.617Z,2.49
2017-03-27T00:27:32.040Z,2.5
2017-03-27T00:27:36.475Z,2.5
2017-03-27T00:27:40.922Z,2.5
2017-03-27T00:27:45.371Z,2.5
2017-03-27T00:27:49.690Z,2.51
2017-03-27T00:27:54.010Z,2.51
2017-03-27T00:27:58.345Z,2.5
2017-03-27T00:28:02.921Z,2.5
2017-03-27T00:28:07.238Z,2.5
2017-03-27T00:28:11.432Z,2.49
2017-03-27T00:28:15.874Z,2.5
2017-03-27T00:28:20.316Z,2.5
2017-03-27T00:28:24.747Z,2.5
2017-03-27T00:28:29.073Z,2.49
2017-03-27T00:28:33.386Z,2.49
2017-03-27T00:28:37.834Z,2.49
2017-03-27T00:28:42.155Z,2.49
2017-03-27T00:28:46.357Z,2.5
2017-03-27T00:28:50.678Z,2.5
2017-03-27T00:28:54.878Z,2.49
2017-03-27T00:28:59.316Z,2.5
2017-03-27T00:29:03.739Z,2.5
2017-03-27T00:29:08.167Z,2.5
2017-03-27T00:29:12.609Z,2.49
2017-03-27T00:29:17.040Z,2.49
2017-03-27T00:29:21.237Z,2.5
2017-03-27T00:29:25.772Z,2.5
2017-03-27T00:29:30.090Z,2.49
2017-03-27T00:29:34.406Z,2.49
2017-03-27T00:29:38.723Z,2.49
2017-03-27T00:29:43.153Z,2.49
2017-03-27T00:29:47.587Z,2.48
2017-03-27T00:29:52.029Z,2.48
2017-03-27T00:29:56.387Z,2.5
2017-03-27T00:30:00.706Z,2.5
2017-03-27T00:30:05.021Z,2.49
2017-03-27T00:30:09.332Z,2.49
2017-03-27T00:30:13.765Z,2.49
2017-03-27T00:30:18.197Z,2.48
2017-03-27T00:30:22.510Z,2.5
2017-03-27T00:30:26.837Z,2.49
2017-03-27T00:30:31.180Z,2.49
2017-03-27T00:30:35.372Z,2.49
2017-03-27T00:30:39.806Z,2.49
2017-03-27T00:30:44.233Z,2.5
2017-03-27T00:30:48.551Z,2.49
2017-03-27T00:30:52.998Z,2.49
2017-03-27T00:30:57.308Z,2.5
2017-03-27T00:31:01.844Z,2.49
2017-03-27T00:31:06.283Z,2.49
2017-03-27T00:31:10.607Z,2.49
2017-03-27T00:31:15.042Z,2.49
2017-03-27T00:31:19.365Z,2.49
2017-03-27T00:31:23.690Z,2.49
2017-03-27T00:31:28.123Z,2.49
2017-03-27T00:31:32.547Z,2.49
2017-03-27T00:31:36.858Z,2.48
2017-03-27T00:31:41.294Z,2.49
2017-03-27T00:31:45.722Z,2.49
2017-03-27T00:31:50.150Z,2.49
2017-03-27T00:31:54.595Z,2.48
2017-03-27T00:31:58.936Z,2.48
2017-03-27T00:32:03.370Z,2.48
2017-03-27T00:32:07.455Z,2.49
2017-03-27T00:32:11.676Z,2.48
2017-03-27T00:32:15.990Z,2.48
2017-03-27T00:32:20.426Z,2.48
2017-03-27T00:32:24.860Z,2.48
2017-03-27T00:32:29.202Z,2.48
2017-03-27T00:32:33.631Z,2.48
2017-03-27T00:32:37.957Z,2.47
2017-03-27T00:32:42.177Z,2.49
2017-03-27T00:32:46.529Z,2.47
2017-03-27T00:32:50.966Z,2.47
2017-03-27T00:32:55.177Z,2.48
2017-03-27T00:32:59.616Z,2.47
2017-03-27T00:33:03.987Z,2.48
2017-03-27T00:33:08.302Z,2.48
2017-03-27T00:33:12.752Z,2.47
2017-03-27T00:33:17.100Z,2.47
2017-03-27T00:33:21.542Z,2.48
2017-03-27T00:33:25.862Z,2.47
2017-03-27T00:33:30.299Z,2.47
2017-03-27T00:33:34.750Z,2.46
2017-03-27T00:33:39.193Z,2.46
2017-03-27T00:33:43.642Z,2.47
2017-03-27T00:33:48.082Z,2.46
2017-03-27T00:33:52.399Z,2.46
2017-03-27T00:33:56.846Z,2.47
2017-03-27T00:34:01.183Z,2.46
2017-03-27T00:34:05.618Z,2.46
2017-03-27T00:34:09.963Z,2.46
2017-03-27T00:34:14.283Z,2.44
2017-03-27T00:34:18.713Z,2.46
2017-03-27T00:34:23.150Z,2.45
2017-03-27T00:34:27.476Z,2.45
2017-03-27T00:34:31.703Z,2.44
2017-03-27T00:34:36.146Z,2.44
2017-03-27T00:34:40.575Z,2.44
2017-03-27T00:34:44.891Z,2.44
2017-03-27T00:34:49.326Z,2.44
2017-03-27T00:34:53.658Z,2.43
2017-03-27T00:34:57.857Z,2.44
2017-03-27T00:35:02.057Z,2.44
2017-03-27T00:35:06.512Z,2.44
2017-03-27T00:35:10.944Z,2.43
2017-03-27T00:35:15.253Z,2.44
2017-03-27T00:35:19.565Z,2.43
2017-03-27T00:35:23.998Z,2.44
2017-03-27T00:35:28.439Z,2.43
2017-03-27T00:35:32.876Z,2.44
2017-03-27T00:35:37.361Z,2.43
2017-03-27T00:35:41.806Z,2.43
2017-03-27T00:35:46.122Z,2.42
2017-03-27T00:35:50.207Z,2.43
2017-03-27T00:35:54.409Z,2.42
2017-03-27T00:35:58.718Z,2.43
2017-03-27T00:36:03.143Z,2.42
2017-03-27T00:36:07.462Z,2.42
2017-03-27T00:36:11.884Z,2.42
2017-03-27T00:36:16.082Z,2.42
2017-03-27T00:36:20.516Z,2.41
2017-03-27T00:36:24.954Z,2.42
2017-03-27T00:36:29.393Z,2.42
2017-03-27T00:36:33.823Z,2.41
2017-03-27T00:36:38.144Z,2.42
2017-03-27T00:36:42.513Z,2.41
2017-03-27T00:36:46.834Z,2.41
2017-03-27T00:36:51.278Z,2.41
2017-03-27T00:36:55.717Z,2.41
2017-03-27T00:37:00.033Z,2.41
2017-03-27T00:37:04.442Z,2.41
2017-03-27T00:37:08.902Z,2.4
2017-03-27T00:37:13.332Z,2.4
2017-03-27T00:37:17.776Z,2.4
2017-03-27T00:37:22.089Z,2.41
2017-03-27T00:37:26.413Z,2.41
2017-03-27T00:37:30.844Z,2.4
2017-03-27T00:37:35.159Z,2.4
2017-03-27T00:37:39.369Z,2.4
2017-03-27T00:37:43.807Z,2.4
2017-03-27T00:37:48.079Z,2.4
2017-03-27T00:37:52.517Z,2.4
2017-03-27T00:37:56.713Z,2.4
2017-03-27T00:38:01.041Z,2.39
2017-03-27T00:38:05.682Z,2.39
2017-03-27T00:38:10.110Z,2.4
2017-03-27T00:38:14.423Z,2.4
2017-03-27T00:38:18.917Z,2.39
2017-03-27T00:38:23.258Z,2.4
2017-03-27T00:38:27.710Z,2.4
2017-03-27T00:38:32.143Z,2.39
2017-03-27T00:38:36.575Z,2.4
2017-03-27T00:38:40.786Z,2.39
2017-03-27T00:38:45.222Z,2.39
2017-03-27T00:38:49.665Z,2.38
2017-03-27T00:38:54.105Z,2.4
2017-03-27T00:38:58.416Z,2.4
2017-03-27T00:39:02.845Z,2.4
2017-03-27T00:39:07.043Z,2.4
2017-03-27T00:39:11.367Z,2.4
2017-03-27T00:39:15.678Z,2.4
2017-03-27T00:39:20.131Z,2.4
2017-03-27T00:39:24.578Z,2.4
2017-03-27T00:39:29.013Z,2.4
2017-03-27T00:39:33.442Z,2.4
2017-03-27T00:39:37.878Z,2.41
2017-03-27T00:39:41.956Z,2.4
2017-03-27T00:39:46.397Z,2.39
2017-03-27T00:39:50.711Z,2.4
2017-03-27T00:39:55.026Z,2.39
2017-03-27T00:39:59.349Z,2.4
2017-03-27T00:40:03.665Z,2.4
2017-03-27T00:40:07.860Z,2.4
2017-03-27T00:40:12.059Z,2.4
2017-03-27T00:40:16.465Z,2.39
2017-03-27T00:40:20.550Z,2.39
2017-03-27T00:40:24.993Z,2.4
2017-03-27T00:40:29.427Z,2.39
2017-03-27T00:40:33.922Z,2.4
2017-03-27T00:40:38.255Z,2.39
2017-03-27T00:40:42.697Z,2.39
2017-03-27T00:40:47.028Z,2.39
2017-03-27T00:40:51.346Z,2.4
2017-03-27T00:40:55.561Z,2.4
2017-03-27T00:40:59.889Z,2.41
2017-03-27T00:41:04.116Z,2.4
2017-03-27T00:41:08.551Z,2.41
2017-03-27T00:41:12.870Z,2.4
2017-03-27T00:41:17.347Z,2.39
2017-03-27T00:41:21.779Z,2.4
2017-03-27T00:41:26.222Z,2.39
2017-03-27T00:41:30.439Z,2.4
2017-03-27T00:41:34.644Z,2.4
2017-03-27T00:41:39.083Z,2.39
2017-03-27T00:41:43.408Z,2.39
2017-03-27T00:41:47.857Z,2.39
2017-03-27T00:41:52.286Z,2.39
2017-03-27T00:41:56.708Z,2.4
2017-03-27T00:42:01.138Z,2.4
2017-03-27T00:42:05.561Z,2.39
2017-03-27T00:42:09.867Z,2.39
2017-03-27T00:42:14.295Z,2.39
2017-03-27T00:42:18.737Z,2.4
2017-03-27T00:42:23.052Z,2.39
2017-03-27T00:42:27.372Z,2.39
2017-03-27T00:42:31.831Z,2.39
2017-03-27T00:42:35.915Z,2.39
2017-03-27T00:42:40.355Z,2.4
2017-03-27T00:42:44.788Z,2.39
2017-03-27T00:42:49.241Z,2.39
2017-03-27T00:42:53.681Z,2.39
2017-03-27T00:42:58.142Z,2.39
2017-03-27T00:43:02.597Z,2.4
2017-03-27T00:43:07.040Z,2.4
2017-03-27T00:43:11.482Z,2.39
2017-03-27T00:43:15.927Z,2.4
2017-03-27T00:43:20.364Z,2.39
2017-03-27T00:43:24.816Z,2.39
2017-03-27T00:43:29.154Z,2.39
2017-03-27T00:43:33.602Z,2.39
2017-03-27T00:43:37.918Z,2.39
2017-03-27T00:43:42.354Z,2.4
2017-03-27T00:43:46.796Z,2.4
2017-03-27T00:43:51.247Z,2.4
2017-03-27T00:43:55.570Z,2.4
2017-03-27T00:43:59.896Z,2.4
2017-03-27T00:44:04.400Z,2.4
2017-03-27T00:44:08.492Z,2.4
2017-03-27T00:44:12.932Z,2.4
2017-03-27T00:44:17.137Z,2.4
2017-03-27T00:44:21.594Z,2.4
2017-03-27T00:44:25.919Z,2.39
2017-03-27T00:44:30.655Z,2.4
2017-03-27T00:44:34.863Z,2.4
2017-03-27T00:44:39.181Z,2.4
2017-03-27T00:44:43.624Z,2.4
2017-03-27T00:44:48.057Z,2.4
2017-03-27T00:44:52.487Z,2.4
2017-03-27T00:44:56.948Z,2.4
2017-03-27T00:45:01.267Z,2.39
2017-03-27T00:45:05.895Z,2.39
2017-03-27T00:45:10.327Z,2.4
2017-03-27T00:45:14.822Z,2.4
2017-03-27T00:45:19.129Z,2.39
2017-03-27T00:45:23.453Z,2.39
2017-03-27T00:45:27.884Z,2.39
2017-03-27T00:45:32.307Z,2.4
2017-03-27T00:45:36.733Z,2.39
2017-03-27T00:45:41.184Z,2.39
2017-03-27T00:45:45.506Z,2.39
2017-03-27T00:45:49.819Z,2.39
2017-03-27T00:45:54.257Z,2.39
2017-03-27T00:45:58.582Z,2.39
2017-03-27T00:46:02.779Z,2.39
2017-03-27T00:46:06.974Z,2.39
2017-03-27T00:46:11.426Z,2.39
2017-03-27T00:46:15.746Z,2.38
2017-03-27T00:46:20.175Z,2.39
2017-03-27T00:46:24.489Z,2.38
2017-03-27T00:46:28.817Z,2.38
2017-03-27T00:46:33.244Z,2.39
2017-03-27T00:46:37.563Z,2.38
2017-03-27T00:46:41.993Z,2.38
2017-03-27T00:46:46.432Z,2.38
2017-03-27T00:46:50.747Z,2.38
2017-03-27T00:46:55.175Z,2.38
2017-03-27T00:46:59.177Z,2.38
2017-03-27T00:47:03.790Z,2.38
2017-03-27T00:47:07.986Z,2.38
2017-03-27T00:47:12.422Z,2.37
2017-03-27T00:47:16.857Z,2.37
2017-03-27T00:47:21.290Z,2.37
2017-03-27T00:47:25.727Z,2.37
2017-03-27T00:47:30.157Z,2.36
2017-03-27T00:47:34.598Z,2.36
2017-03-27T00:47:39.039Z,2.36
2017-03-27T00:47:43.472Z,2.36
2017-03-27T00:47:47.800Z,2.35
2017-03-27T00:47:52.273Z,2.35
2017-03-27T00:47:56.597Z,2.35
2017-03-27T00:48:00.916Z,2.35
2017-03-27T00:48:05.377Z,2.35
2017-03-27T00:48:09.689Z,2.36
2017-03-27T00:48:14.006Z,2.35
2017-03-27T00:48:18.436Z,2.34
2017-03-27T00:48:22.763Z,2.34
2017-03-27T00:48:27.086Z,2.35
2017-03-27T00:48:31.557Z,2.34
2017-03-27T00:48:35.878Z,2.34
2017-03-27T00:48:40.199Z,2.35
2017-03-27T00:48:44.527Z,2.33
2017-03-27T00:48:48.981Z,2.33
2017-03-27T00:48:53.306Z,2.33
2017-03-27T00:48:57.739Z,2.33
2017-03-27T00:49:02.110Z,2.32
2017-03-27T00:49:06.429Z,2.32
2017-03-27T00:49:10.872Z,2.33
2017-03-27T00:49:15.309Z,2.32
2017-03-27T00:49:19.511Z,2.33
2017-03-27T00:49:23.825Z,2.31
2017-03-27T00:49:28.026Z,2.32
2017-03-27T00:49:32.787Z,2.32
2017-03-27T00:49:37.102Z,2.32
2017-03-27T00:49:41.417Z,2.32
2017-03-27T00:49:45.730Z,2.32
2017-03-27T00:49:50.185Z,2.32
2017-03-27T00:49:54.501Z,2.31
2017-03-27T00:49:58.826Z,2.32
2017-03-27T00:50:03.374Z,2.31
2017-03-27T00:50:07.692Z,2.31
2017-03-27T00:50:12.004Z,2.32
2017-03-27T00:50:16.429Z,2.3
2017-03-27T00:50:20.738Z,2.3
2017-03-27T00:50:24.940Z,2.31
2017-03-27T00:50:29.250Z,2.31
2017-03-27T00:50:33.674Z,2.31
2017-03-27T00:50:38.102Z,2.31
2017-03-27T00:50:42.532Z,2.31
2017-03-27T00:50:46.959Z,2.3
2017-03-27T00:50:51.038Z,2.3
2017-03-27T00:50:55.463Z,2.31
2017-03-27T00:50:59.661Z,2.3
2017-03-27T00:51:04.090Z,2.3
2017-03-27T00:51:08.407Z,2.3
2017-03-27T00:51:12.864Z,2.3
2017-03-27T00:51:17.321Z,2.3
2017-03-27T00:51:21.774Z,2.29
2017-03-27T00:51:26.086Z,2.29
2017-03-27T00:51:30.515Z,2.29
2017-03-27T00:51:34.824Z,2.29
2017-03-27T00:51:39.148Z,2.3
2017-03-27T00:51:43.458Z,2.28
2017-03-27T00:51:47.771Z,2.28
2017-03-27T00:51:52.079Z,2.28
2017-03-27T00:51:56.447Z,2.29
2017-03-27T00:52:00.529Z,2.29
2017-03-27T00:52:04.836Z,2.28
2017-03-27T00:52:09.152Z,2.27
2017-03-27T00:52:13.580Z,2.28
2017-03-27T00:52:17.792Z,2.27
2017-03-27T00:52:22.261Z,2.27
2017-03-27T00:52:26.569Z,2.28
2017-03-27T00:52:30.900Z,2.28
2017-03-27T00:52:35.097Z,2.28
2017-03-27T00:52:39.417Z,2.27
2017-03-27T00:52:43.853Z,2.27
2017-03-27T00:52:48.181Z,2.28
2017-03-27T00:52:52.610Z,2.27
2017-03-27T00:52:56.935Z,2.27
2017-03-27T00:53:01.383Z,2.27
2017-03-27T00:53:05.814Z,2.26
2017-03-27T00:53:10.253Z,2.27
2017-03-27T00:53:14.694Z,2.26
2017-03-27T00:53:19.143Z,2.27
2017-03-27T00:53:23.354Z,2.27
2017-03-27T00:53:27.797Z,2.27
2017-03-27T00:53:32.242Z,2.27
2017-03-27T00:53:36.694Z,2.27
2017-03-27T00:53:41.129Z,2.27
2017-03-27T00:53:45.344Z,2.26
2017-03-27T00:53:49.809Z,2.26
2017-03-27T00:53:54.244Z,2.26
2017-03-27T00:53:58.694Z,2.26
2017-03-27T00:54:03.004Z,2.26
2017-03-27T00:54:07.212Z,2.27
2017-03-27T00:54:11.296Z,2.27
2017-03-27T00:54:15.730Z,2.26
2017-03-27T00:54:20.172Z,2.26
2017-03-27T00:54:24.612Z,2.27
2017-03-27T00:54:29.056Z,2.26
2017-03-27T00:54:33.485Z,2.26
2017-03-27T00:54:37.800Z,2.25
2017-03-27T00:54:41.882Z,2.26
2017-03-27T00:54:46.325Z,2.26
2017-03-27T00:54:50.757Z,2.26
2017-03-27T00:54:55.071Z,2.26
2017-03-27T00:54:59.275Z,2.27
2017-03-27T00:55:03.591Z,2.26
2017-03-27T00:55:07.911Z,2.26
2017-03-27T00:55:12.111Z,2.26
2017-03-27T00:55:16.428Z,2.26
2017-03-27T00:55:20.635Z,2.26
2017-03-27T00:55:25.064Z,2.25
2017-03-27T00:55:29.496Z,2.25
2017-03-27T00:55:33.941Z,2.26
2017-03-27T00:55:38.254Z,2.25
2017-03-27T00:55:42.695Z,2.26
2017-03-27T00:55:47.126Z,2.26
2017-03-27T00:55:51.201Z,2.26
2017-03-27T00:55:55.637Z,2.26
2017-03-27T00:55:59.956Z,2.26
2017-03-27T00:56:04.166Z,2.26
2017-03-27T00:56:08.591Z,2.26
2017-03-27T00:56:13.036Z,2.26
2017-03-27T00:56:17.466Z,2.25
2017-03-27T00:56:21.783Z,2.25
2017-03-27T00:56:26.243Z,2.25
2017-03-27T00:56:30.674Z,2.26
2017-03-27T00:56:34.995Z,2.26
2017-03-27T00:56:39.437Z,2.26
2017-03-27T00:56:43.782Z,2.25
2017-03-27T00:56:48.091Z,2.26
2017-03-27T00:56:52.523Z,2.25
2017-03-27T00:56:56.978Z,2.25
2017-03-27T00:57:01.175Z,2.24
2017-03-27T00:57:05.709Z,2.25
2017-03-27T00:57:10.137Z,2.25
2017-03-27T00:57:14.332Z,2.25
2017-03-27T00:57:18.768Z,2.25
2017-03-27T00:57:23.199Z,2.25
2017-03-27T00:57:27.522Z,2.25
2017-03-27T00:57:31.995Z,2.26
2017-03-27T00:57:36.424Z,2.26
2017-03-27T00:57:40.861Z,2.26
2017-03-27T00:57:45.299Z,2.26
2017-03-27T00:57:49.731Z,2.26
2017-03-27T00:57:54.169Z,2.26
2017-03-27T00:57:58.605Z,2.25
2017-03-27T00:58:02.923Z,2.26
2017-03-27T00:58:07.403Z,2.25
2017-03-27T00:58:11.830Z,2.26
2017-03-27T00:58:16.165Z,2.26
2017-03-27T00:58:20.500Z,2.26
2017-03-27T00:58:25.018Z,2.26
2017-03-27T00:58:29.457Z,2.26
2017-03-27T00:58:33.890Z,2.26